KTOP/TOP METAR and TAF weather

Enter ICAO airport designator
Station Type Date Time Source
KTOP METAR 2020/11/25 22:53 UTC NOAA

KTOP 252253Z 25003KT 10SM OVC020 04/M01 A2997 RMK AO2 SLP152 T00441006


Station Type Date Time Source
KTOP Decoded METAR 2020/11/25 22:53 UTC NOAA

TOPEKA BILLARD MUNICIPAL AIRPORT, KS, United States (KTOP) 39-04N 95-38W 268M
Nov 25, 2020 - 05:53 PM EST / 2020.11.25 2253 UTC
Wind: from the WSW (250 degrees) at 3 MPH (3 KT):0
Visibility: 10 mile(s):0
Sky conditions: overcast
Temperature: 39.9 F (4.4 C)
Dew Point: 30.9 F (-0.6 C)
Relative Humidity: 69%
Pressure (altimeter): 29.97 in. Hg (1014 hPa)
ob: KTOP 252253Z 25003KT 10SM OVC020 04/M01 A2997 RMK AO2 SLP152 T00441006
cycle: 23

Station Type Date Time Source
KTOP TAF 2020/11/25 22:57 UTC NOAA

TAF
AMD KTOP 252154Z 2522/2618 32012KT P6SM OVC012
FM252300 30006KT P6SM SCT012
FM260400 00000KT 2SM BR SCT009
FM261400 00000KT 4SM BR BKN010

Example: see airport list